createdAt,value
2018-09-28T00:00:07.244Z,1013.19
2018-09-28T00:00:47.807Z,1013.2
2018-09-28T00:01:28.369Z,1013.22
2018-09-28T00:02:08.923Z,1013.21
2018-09-28T00:02:49.490Z,1013.18
2018-09-28T00:03:30.055Z,1013.22
2018-09-28T00:04:10.653Z,1013.22
2018-09-28T00:04:51.218Z,1013.21
2018-09-28T00:05:31.819Z,1013.21
2018-09-28T00:06:12.415Z,1013.19
2018-09-28T00:06:52.973Z,1013.2
2018-09-28T00:07:33.535Z,1013.19
2018-09-28T00:08:14.107Z,1013.23
2018-09-28T00:08:54.687Z,1013.17
2018-09-28T00:09:35.273Z,1013.18
2018-09-28T00:10:15.826Z,1013.2
2018-09-28T00:10:56.390Z,1013.18
2018-09-28T00:11:36.941Z,1013.19
2018-09-28T00:12:17.526Z,1013.16
2018-09-28T00:12:58.087Z,1013.16
2018-09-28T00:13:38.652Z,1013.17
2018-09-28T00:14:19.216Z,1013.17
2018-09-28T00:14:59.794Z,1013.18
2018-09-28T00:15:40.366Z,1013.14
2018-09-28T00:16:20.933Z,1013.14
2018-09-28T00:17:01.498Z,1013.15
2018-09-28T00:17:42.077Z,1013.14
2018-09-28T00:18:22.688Z,1013.14
2018-09-28T00:19:03.279Z,1013.16
2018-09-28T00:19:43.836Z,1013.14
2018-09-28T00:20:24.388Z,1013.1
2018-09-28T00:21:04.943Z,1013.13
2018-09-28T00:21:45.626Z,1013.12
2018-09-28T00:22:26.189Z,1013.1
2018-09-28T00:23:06.905Z,1013.12
2018-09-28T00:23:47.495Z,1013.12
2018-09-28T00:24:28.066Z,1013.13
2018-09-28T00:25:08.630Z,1013.09
2018-09-28T00:25:49.195Z,1013.12
2018-09-28T00:26:29.739Z,1013.08
2018-09-28T00:27:10.315Z,1013.1
2018-09-28T00:27:50.882Z,1013.09
2018-09-28T00:28:31.438Z,1013.06
2018-09-28T00:29:12.021Z,1013.04
2018-09-28T00:29:52.579Z,1013.03
2018-09-28T00:30:33.140Z,1013.05
2018-09-28T00:31:13.699Z,1013.1
2018-09-28T00:31:54.264Z,1013.05
2018-09-28T00:32:34.823Z,1013.04
2018-09-28T00:33:15.459Z,1013.07
2018-09-28T00:33:56.074Z,1013.06
2018-09-28T00:34:36.649Z,1013.05
2018-09-28T00:35:17.196Z,1013.06
2018-09-28T00:35:57.849Z,1013.03
2018-09-28T00:36:38.326Z,1013.05
2018-09-28T00:37:18.892Z,1013.05
2018-09-28T00:37:59.435Z,1013.05
2018-09-28T00:38:40.013Z,1013.04
2018-09-28T00:39:20.596Z,1013.04
2018-09-28T00:40:01.183Z,1013.06
2018-09-28T00:40:41.738Z,1013.06
2018-09-28T00:41:22.321Z,1013.03
2018-09-28T00:42:02.876Z,1013.03
2018-09-28T00:42:43.450Z,1013.06
2018-09-28T00:43:24.018Z,1013.03
2018-09-28T00:44:04.594Z,1013.01
2018-09-28T00:44:45.189Z,1013.04
2018-09-28T00:45:25.770Z,1013
2018-09-28T00:46:06.342Z,1013.03
2018-09-28T00:46:46.914Z,1013.01
2018-09-28T00:47:27.469Z,1012.98
2018-09-28T00:48:08.030Z,1012.97
2018-09-28T00:48:48.632Z,1012.95
2018-09-28T00:49:29.196Z,1013
2018-09-28T00:50:09.745Z,1012.93
2018-09-28T00:50:50.299Z,1012.98
2018-09-28T00:51:30.877Z,1012.94
2018-09-28T00:52:11.441Z,1012.93
2018-09-28T00:52:52.038Z,1012.97
2018-09-28T00:53:32.604Z,1012.93
2018-09-28T00:54:13.165Z,1012.93
2018-09-28T00:54:53.717Z,1012.92
2018-09-28T00:55:34.280Z,1012.89
2018-09-28T00:56:14.834Z,1012.88
2018-09-28T00:56:55.389Z,1012.9
2018-09-28T00:57:35.964Z,1012.88
2018-09-28T00:58:16.533Z,1012.87
2018-09-28T00:58:57.093Z,1012.85
2018-09-28T00:59:37.658Z,1012.87
2018-09-28T01:00:18.244Z,1012.87
2018-09-28T01:00:58.810Z,1012.87
2018-09-28T01:01:39.405Z,1012.85
2018-09-28T01:02:19.975Z,1012.85
2018-09-28T01:03:00.536Z,1012.83
2018-09-28T01:03:41.106Z,1012.84
2018-09-28T01:04:21.668Z,1012.81
2018-09-28T01:05:02.228Z,1012.83
2018-09-28T01:05:42.787Z,1012.81
2018-09-28T01:06:23.346Z,1012.81
2018-09-28T01:07:03.894Z,1012.86
2018-09-28T01:07:44.479Z,1012.8
2018-09-28T01:08:25.040Z,1012.81
2018-09-28T01:09:05.604Z,1012.79
2018-09-28T01:09:46.200Z,1012.81
2018-09-28T01:10:26.775Z,1012.8
2018-09-28T01:11:07.350Z,1012.8
2018-09-28T01:11:47.925Z,1012.76
2018-09-28T01:12:28.460Z,1012.75
2018-09-28T01:13:09.016Z,1012.73
2018-09-28T01:13:49.581Z,1012.74
2018-09-28T01:14:30.138Z,1012.71
2018-09-28T01:15:10.735Z,1012.71
2018-09-28T01:15:51.294Z,1012.71
2018-09-28T01:16:31.862Z,1012.71
2018-09-28T01:17:12.418Z,1012.68
2018-09-28T01:17:52.980Z,1012.7
2018-09-28T01:18:33.563Z,1012.72
2018-09-28T01:19:14.129Z,1012.69
2018-09-28T01:19:54.690Z,1012.67
2018-09-28T01:20:35.244Z,1012.71
2018-09-28T01:21:15.812Z,1012.68
2018-09-28T01:21:56.367Z,1012.68
2018-09-28T01:22:36.935Z,1012.67
2018-09-28T01:23:17.512Z,1012.72
2018-09-28T01:23:58.067Z,1012.72
2018-09-28T01:24:38.630Z,1012.71
2018-09-28T01:25:19.240Z,1012.7
2018-09-28T01:25:59.809Z,1012.69
2018-09-28T01:26:40.372Z,1012.69
2018-09-28T01:27:20.919Z,1012.67
2018-09-28T01:28:01.493Z,1012.71
2018-09-28T01:28:42.074Z,1012.71
2018-09-28T01:29:22.690Z,1012.63
2018-09-28T01:30:03.224Z,1012.64
2018-09-28T01:30:43.802Z,1012.68
2018-09-28T01:31:24.378Z,1012.66
2018-09-28T01:32:04.952Z,1012.62
2018-09-28T01:32:45.514Z,1012.63
2018-09-28T01:33:26.056Z,1012.61
2018-09-28T01:34:13.163Z,1012.62
2018-09-28T01:34:54.677Z,1012.61
2018-09-28T01:35:35.265Z,1012.62
2018-09-28T01:36:15.843Z,1012.64
2018-09-28T01:36:56.408Z,1012.64
2018-09-28T01:37:36.981Z,1012.68
2018-09-28T01:38:17.530Z,1012.64
2018-09-28T01:38:58.081Z,1012.64
2018-09-28T01:39:38.661Z,1012.68
2018-09-28T01:40:19.204Z,1012.72
2018-09-28T01:40:59.762Z,1012.69
2018-09-28T01:41:40.316Z,1012.63
2018-09-28T01:42:20.873Z,1012.63
2018-09-28T01:43:01.438Z,1012.66
2018-09-28T01:43:41.997Z,1012.66
2018-09-28T01:44:22.569Z,1012.63
2018-09-28T01:45:03.118Z,1012.65
2018-09-28T01:45:43.700Z,1012.6
2018-09-28T01:46:24.266Z,1012.65
2018-09-28T01:47:04.811Z,1012.62
2018-09-28T01:47:45.368Z,1012.61
2018-09-28T01:48:25.921Z,1012.61
2018-09-28T01:49:06.492Z,1012.62
2018-09-28T01:49:47.054Z,1012.59
2018-09-28T01:50:27.626Z,1012.6
2018-09-28T01:51:08.188Z,1012.62
2018-09-28T01:51:48.749Z,1012.62
2018-09-28T01:52:29.310Z,1012.63
2018-09-28T01:53:09.901Z,1012.62
2018-09-28T01:53:50.467Z,1012.64
2018-09-28T01:54:31.029Z,1012.62
2018-09-28T01:55:11.584Z,1012.6
2018-09-28T01:55:52.142Z,1012.62
2018-09-28T01:56:32.706Z,1012.68
2018-09-28T01:57:13.267Z,1012.68
2018-09-28T01:57:53.823Z,1012.63
2018-09-28T01:58:34.384Z,1012.67
2018-09-28T01:59:14.949Z,1012.69
2018-09-28T01:59:55.512Z,1012.66
2018-09-28T02:00:36.084Z,1012.66
2018-09-28T02:01:16.646Z,1012.64
2018-09-28T02:01:57.216Z,1012.71
2018-09-28T02:02:37.782Z,1012.66
2018-09-28T02:03:18.337Z,1012.68
2018-09-28T02:03:58.890Z,1012.63
2018-09-28T02:04:39.456Z,1012.62
2018-09-28T02:05:20.018Z,1012.63
2018-09-28T02:06:00.587Z,1012.61
2018-09-28T02:06:41.144Z,1012.62
2018-09-28T02:07:21.704Z,1012.67
2018-09-28T02:08:02.260Z,1012.61
2018-09-28T02:08:42.845Z,1012.63
2018-09-28T02:09:23.408Z,1012.62
2018-09-28T02:10:03.966Z,1012.58
2018-09-28T02:10:44.542Z,1012.6
2018-09-28T02:11:25.115Z,1012.61
2018-09-28T02:12:05.669Z,1012.63
2018-09-28T02:12:46.228Z,1012.61
2018-09-28T02:13:26.789Z,1012.59
2018-09-28T02:14:07.355Z,1012.62
2018-09-28T02:14:47.916Z,1012.61
2018-09-28T02:15:28.480Z,1012.63
2018-09-28T02:16:09.056Z,1012.62
2018-09-28T02:16:49.610Z,1012.65
2018-09-28T02:17:30.227Z,1012.65
2018-09-28T02:18:10.749Z,1012.65
2018-09-28T02:18:51.332Z,1012.69
2018-09-28T02:19:31.881Z,1012.61
2018-09-28T02:20:12.447Z,1012.69
2018-09-28T02:20:53.012Z,1012.72
2018-09-28T02:21:33.612Z,1012.7
2018-09-28T02:22:14.162Z,1012.68
2018-09-28T02:22:54.720Z,1012.7
2018-09-28T02:23:35.287Z,1012.72
2018-09-28T02:24:15.836Z,1012.71
2018-09-28T02:24:56.398Z,1012.73
2018-09-28T02:25:36.948Z,1012.72
2018-09-28T02:26:17.514Z,1012.7
2018-09-28T02:26:58.072Z,1012.73
2018-09-28T02:27:38.632Z,1012.72
2018-09-28T02:28:19.197Z,1012.72
2018-09-28T02:28:59.745Z,1012.75
2018-09-28T02:29:40.309Z,1012.69
2018-09-28T02:30:20.877Z,1012.7
2018-09-28T02:31:02.069Z,1012.7
2018-09-28T02:31:45.283Z,1012.7
2018-09-28T02:32:25.846Z,1012.7
2018-09-28T02:33:07.919Z,1012.66
2018-09-28T02:33:48.491Z,1012.66
2018-09-28T02:34:29.061Z,1012.67
2018-09-28T02:35:09.646Z,1012.68
2018-09-28T02:35:50.200Z,1012.61
2018-09-28T02:36:31.677Z,1012.68
2018-09-28T02:37:12.235Z,1012.61
2018-09-28T02:37:52.799Z,1012.62
2018-09-28T02:38:33.353Z,1012.58
2018-09-28T02:39:13.949Z,1012.59
2018-09-28T02:39:54.545Z,1012.62
2018-09-28T02:40:35.147Z,1012.6
2018-09-28T02:41:15.700Z,1012.67
2018-09-28T02:41:56.268Z,1012.61
2018-09-28T02:42:36.824Z,1012.61
2018-09-28T02:43:17.383Z,1012.59
2018-09-28T02:43:57.945Z,1012.59
2018-09-28T02:44:38.505Z,1012.69
2018-09-28T02:45:19.081Z,1012.63
2018-09-28T02:45:59.650Z,1012.66
2018-09-28T02:46:40.244Z,1012.61
2018-09-28T02:47:20.804Z,1012.64
2018-09-28T02:48:01.408Z,1012.64
2018-09-28T02:48:41.985Z,1012.6
2018-09-28T02:49:22.543Z,1012.61
2018-09-28T02:50:03.103Z,1012.61
2018-09-28T02:50:43.683Z,1012.63
2018-09-28T02:51:24.264Z,1012.65
2018-09-28T02:52:04.839Z,1012.67
2018-09-28T02:52:45.392Z,1012.67
2018-09-28T02:53:26.027Z,1012.67
2018-09-28T02:54:06.601Z,1012.67
2018-09-28T02:54:47.172Z,1012.66
2018-09-28T02:55:27.725Z,1012.66
2018-09-28T02:56:08.309Z,1012.65
2018-09-28T02:56:48.871Z,1012.66
2018-09-28T02:57:29.410Z,1012.66
2018-09-28T02:58:09.987Z,1012.66
2018-09-28T02:58:50.539Z,1012.67
2018-09-28T02:59:31.126Z,1012.66
2018-09-28T03:00:11.693Z,1012.67
2018-09-28T03:00:52.252Z,1012.64
2018-09-28T03:01:32.820Z,1012.64
2018-09-28T03:02:13.438Z,1012.64
2018-09-28T03:02:53.989Z,1012.7
2018-09-28T03:03:34.573Z,1012.65
2018-09-28T03:04:15.133Z,1012.66
2018-09-28T03:04:55.698Z,1012.65
2018-09-28T03:05:36.254Z,1012.63
2018-09-28T03:06:16.828Z,1012.63
2018-09-28T03:06:57.371Z,1012.63
2018-09-28T03:07:37.947Z,1012.64
2018-09-28T03:08:18.502Z,1012.59
2018-09-28T03:08:59.060Z,1012.6
2018-09-28T03:09:39.619Z,1012.56
2018-09-28T03:10:20.178Z,1012.63
2018-09-28T03:11:00.749Z,1012.59
2018-09-28T03:11:41.310Z,1012.57
2018-09-28T03:12:21.880Z,1012.59
2018-09-28T03:13:02.427Z,1012.55
2018-09-28T03:13:42.989Z,1012.57
2018-09-28T03:14:23.573Z,1012.58
2018-09-28T03:15:04.127Z,1012.59
2018-09-28T03:15:51.430Z,1012.58
2018-09-28T03:16:31.998Z,1012.61
2018-09-28T03:17:12.567Z,1012.66
2018-09-28T03:17:53.114Z,1012.57
2018-09-28T03:18:33.681Z,1012.56
2018-09-28T03:19:14.237Z,1012.65
2018-09-28T03:19:54.804Z,1012.66
2018-09-28T03:20:35.348Z,1012.66
2018-09-28T03:21:15.926Z,1012.7
2018-09-28T03:21:56.497Z,1012.66
2018-09-28T03:22:37.058Z,1012.69
2018-09-28T03:23:17.628Z,1012.65
2018-09-28T03:23:58.181Z,1012.67
2018-09-28T03:24:38.745Z,1012.67
2018-09-28T03:25:19.307Z,1012.66
2018-09-28T03:25:59.908Z,1012.63
2018-09-28T03:26:40.453Z,1012.66
2018-09-28T03:27:21.016Z,1012.68
2018-09-28T03:28:01.571Z,1012.67
2018-09-28T03:28:42.158Z,1012.69
2018-09-28T03:29:22.718Z,1012.69
2018-09-28T03:30:03.272Z,1012.68
2018-09-28T03:30:43.835Z,1012.68
2018-09-28T03:31:24.403Z,1012.69
2018-09-28T03:32:04.970Z,1012.7
2018-09-28T03:32:45.538Z,1012.68
2018-09-28T03:33:26.103Z,1012.69
2018-09-28T03:34:06.658Z,1012.7
2018-09-28T03:34:47.223Z,1012.69
2018-09-28T03:35:27.778Z,1012.7
2018-09-28T03:36:08.342Z,1012.69
2018-09-28T03:36:48.910Z,1012.68
2018-09-28T03:37:29.474Z,1012.7
2018-09-28T03:38:10.030Z,1012.73
2018-09-28T03:38:50.593Z,1012.69
2018-09-28T03:39:31.149Z,1012.73
2018-09-28T03:40:11.718Z,1012.7
2018-09-28T03:40:52.305Z,1012.72
2018-09-28T03:41:32.862Z,1012.7
2018-09-28T03:42:13.409Z,1012.7
2018-09-28T03:42:53.977Z,1012.72
2018-09-28T03:43:34.567Z,1012.68
2018-09-28T03:44:15.126Z,1012.67
2018-09-28T03:44:55.688Z,1012.73
2018-09-28T03:45:36.241Z,1012.7
2018-09-28T03:46:16.817Z,1012.75
2018-09-28T03:46:57.366Z,1012.71
2018-09-28T03:47:37.931Z,1012.71
2018-09-28T03:48:18.499Z,1012.73
2018-09-28T03:48:59.071Z,1012.64
2018-09-28T03:49:39.619Z,1012.67
2018-09-28T03:50:20.172Z,1012.69
2018-09-28T03:51:00.759Z,1012.66
2018-09-28T03:51:41.317Z,1012.69
2018-09-28T03:52:21.873Z,1012.7
2018-09-28T03:53:02.433Z,1012.72
2018-09-28T03:53:42.995Z,1012.71
2018-09-28T03:54:23.558Z,1012.74
2018-09-28T03:55:04.116Z,1012.72
2018-09-28T03:56:56.685Z,1012.71
2018-09-28T03:57:37.284Z,1012.73
2018-09-28T03:58:17.849Z,1012.71
2018-09-28T03:58:58.403Z,1012.72
2018-09-28T03:59:38.957Z,1012.74
2018-09-28T04:00:19.513Z,1012.72
2018-09-28T04:01:00.071Z,1012.74
2018-09-28T04:01:40.653Z,1012.71
2018-09-28T04:02:23.864Z,1012.71
2018-09-28T04:03:07.376Z,1012.72
2018-09-28T04:03:47.942Z,1012.69
2018-09-28T04:04:39.227Z,1012.7
2018-09-28T04:05:19.779Z,1012.73
2018-09-28T04:06:04.900Z,1012.74
2018-09-28T04:08:18.154Z,1012.73
2018-09-28T04:08:58.712Z,1012.71
2018-09-28T04:09:39.262Z,1012.71
2018-09-28T04:10:19.852Z,1012.74
2018-09-28T04:11:00.416Z,1012.71
2018-09-28T04:11:40.987Z,1012.77
2018-09-28T04:12:21.565Z,1012.74
2018-09-28T04:13:02.113Z,1012.7
2018-09-28T04:13:42.681Z,1012.69
2018-09-28T04:14:23.227Z,1012.72
2018-09-28T04:15:03.835Z,1012.72
2018-09-28T04:15:44.350Z,1012.73
2018-09-28T04:16:24.898Z,1012.74
2018-09-28T04:17:05.460Z,1012.71
2018-09-28T04:17:46.032Z,1012.71
2018-09-28T04:18:26.595Z,1012.71
2018-09-28T04:19:07.138Z,1012.71
2018-09-28T04:19:47.701Z,1012.76
2018-09-28T04:20:28.264Z,1012.74
2018-09-28T04:21:08.856Z,1012.74
2018-09-28T04:21:49.446Z,1012.77
2018-09-28T04:22:29.982Z,1012.73
2018-09-28T04:23:10.548Z,1012.75
2018-09-28T04:23:51.115Z,1012.75
2018-09-28T04:24:31.672Z,1012.75
2018-09-28T04:26:29.349Z,1012.73
2018-09-28T04:27:09.892Z,1012.75
2018-09-28T04:27:50.534Z,1012.71
2018-09-28T04:28:31.088Z,1012.72
2018-09-28T04:29:11.644Z,1012.7
2018-09-28T04:29:52.214Z,1012.73
2018-09-28T04:30:32.777Z,1012.74
2018-09-28T04:31:13.354Z,1012.75
2018-09-28T04:31:53.910Z,1012.73
2018-09-28T04:32:34.470Z,1012.77
2018-09-28T04:33:15.034Z,1012.82
2018-09-28T04:33:55.614Z,1012.81
2018-09-28T04:34:36.171Z,1012.78
2018-09-28T04:35:16.732Z,1012.84
2018-09-28T04:35:57.289Z,1012.82
2018-09-28T04:36:37.851Z,1012.85
2018-09-28T04:37:18.417Z,1012.82
2018-09-28T04:37:58.987Z,1012.85
2018-09-28T04:38:39.555Z,1012.85
2018-09-28T04:39:20.179Z,1012.83
2018-09-28T04:40:00.730Z,1012.87
2018-09-28T04:40:41.300Z,1012.87
2018-09-28T04:41:21.851Z,1012.9
2018-09-28T04:42:02.413Z,1012.92
2018-09-28T04:42:42.981Z,1012.92
2018-09-28T04:43:23.543Z,1012.89
2018-09-28T04:44:04.107Z,1012.91
2018-09-28T04:44:44.670Z,1012.91
2018-09-28T04:45:25.276Z,1012.89
2018-09-28T04:46:05.786Z,1012.91
2018-09-28T04:46:46.376Z,1012.92
2018-09-28T04:47:26.928Z,1012.89
2018-09-28T04:48:07.493Z,1012.92
2018-09-28T04:48:48.049Z,1012.92
2018-09-28T04:49:28.598Z,1012.97
2018-09-28T04:50:09.162Z,1012.93
2018-09-28T04:50:49.732Z,1012.96
2018-09-28T04:51:30.269Z,1012.91
2018-09-28T04:52:10.833Z,1012.97
2018-09-28T04:52:51.572Z,1012.98
2018-09-28T04:53:32.141Z,1013.01
2018-09-28T04:54:12.744Z,1012.99
2018-09-28T04:54:53.355Z,1013.02
2018-09-28T04:55:33.917Z,1013.01
2018-09-28T04:56:14.478Z,1013.04
2018-09-28T04:56:55.054Z,1013.06
2018-09-28T04:57:35.617Z,1013.08
2018-09-28T04:58:16.267Z,1013.08
2018-09-28T04:58:56.811Z,1013.11
2018-09-28T04:59:37.364Z,1013.11
2018-09-28T05:00:17.908Z,1013.11
2018-09-28T05:00:58.457Z,1013.13
2018-09-28T05:01:39.146Z,1013.18
2018-09-28T05:02:19.616Z,1013.15
2018-09-28T05:03:00.181Z,1013.19
2018-09-28T05:03:40.741Z,1013.17
2018-09-28T05:04:21.326Z,1013.19
2018-09-28T05:05:01.871Z,1013.19
2018-09-28T05:05:42.444Z,1013.21
2018-09-28T05:06:23.015Z,1013.23
2018-09-28T05:07:03.588Z,1013.19
2018-09-28T05:07:44.172Z,1013.18
2018-09-28T05:08:24.734Z,1013.21
2018-09-28T05:09:05.312Z,1013.15
2018-09-28T05:09:45.876Z,1013.19
2018-09-28T05:10:26.462Z,1013.15
2018-09-28T05:11:07.000Z,1013.17
2018-09-28T05:11:47.558Z,1013.23
2018-09-28T05:12:28.168Z,1013.2
2018-09-28T05:13:08.767Z,1013.17
2018-09-28T05:13:49.322Z,1013.21
2018-09-28T05:14:29.895Z,1013.24
2018-09-28T05:15:10.567Z,1013.28
2018-09-28T05:15:51.134Z,1013.29
2018-09-28T05:16:31.694Z,1013.28
2018-09-28T05:17:12.259Z,1013.27
2018-09-28T05:17:52.811Z,1013.31
2018-09-28T05:18:33.385Z,1013.32
2018-09-28T05:19:13.961Z,1013.35
2018-09-28T05:19:54.511Z,1013.38
2018-09-28T05:20:35.063Z,1013.35
2018-09-28T05:21:15.632Z,1013.36
2018-09-28T05:21:56.199Z,1013.36
2018-09-28T05:22:36.759Z,1013.37
2018-09-28T05:23:17.333Z,1013.37
2018-09-28T05:23:57.896Z,1013.38
2018-09-28T05:24:38.466Z,1013.42
2018-09-28T05:25:19.056Z,1013.41
2018-09-28T05:25:59.599Z,1013.42
2018-09-28T05:26:40.173Z,1013.44
2018-09-28T05:27:20.743Z,1013.47
2018-09-28T05:28:01.303Z,1013.44
2018-09-28T05:28:41.862Z,1013.47
2018-09-28T05:29:22.420Z,1013.52
2018-09-28T05:30:02.985Z,1013.52
2018-09-28T05:30:44.971Z,1013.52
2018-09-28T05:31:24.207Z,1013.57
2018-09-28T05:32:04.854Z,1013.58
2018-09-28T05:32:45.408Z,1013.59
2018-09-28T05:33:25.838Z,1013.57
2018-09-28T05:34:06.410Z,1013.59
2018-09-28T05:34:46.965Z,1013.59
2018-09-28T05:35:27.521Z,1013.58
2018-09-28T05:36:08.077Z,1013.63
2018-09-28T05:36:48.647Z,1013.61
2018-09-28T05:37:29.209Z,1013.6
2018-09-28T05:38:09.809Z,1013.68
2018-09-28T05:38:50.375Z,1013.62
2018-09-28T05:39:30.986Z,1013.66
2018-09-28T05:40:11.491Z,1013.66
2018-09-28T05:40:52.063Z,1013.69
2018-09-28T05:41:32.627Z,1013.69
2018-09-28T05:42:13.167Z,1013.7
2018-09-28T05:42:53.738Z,1013.73
2018-09-28T05:43:34.326Z,1013.78
2018-09-28T05:44:14.920Z,1013.74
2018-09-28T05:44:55.516Z,1013.76
2018-09-28T05:45:37.210Z,1013.79
2018-09-28T05:46:17.844Z,1013.76
2018-09-28T05:46:58.379Z,1013.77
2018-09-28T05:47:38.939Z,1013.79
2018-09-28T05:48:19.567Z,1013.8
2018-09-28T05:49:00.148Z,1013.83
2018-09-28T05:49:41.676Z,1013.85
2018-09-28T05:50:22.257Z,1013.83
2018-09-28T05:51:03.215Z,1013.83
2018-09-28T05:51:43.819Z,1013.82
2018-09-28T05:52:24.397Z,1013.85
2018-09-28T05:53:04.974Z,1013.86
2018-09-28T05:53:45.595Z,1013.89
2018-09-28T05:54:26.179Z,1013.89
2018-09-28T05:55:06.733Z,1013.96
2018-09-28T05:55:47.277Z,1013.89
2018-09-28T05:56:27.856Z,1013.91
2018-09-28T05:57:08.714Z,1013.93
2018-09-28T05:57:49.599Z,1013.93
2018-09-28T05:58:30.264Z,1013.9
2018-09-28T05:59:10.773Z,1013.95
2018-09-28T05:59:51.331Z,1013.95
2018-09-28T06:00:31.909Z,1014.01
2018-09-28T06:01:12.627Z,1013.96
2018-09-28T06:01:53.243Z,1014
2018-09-28T06:02:34.424Z,1014.01
2018-09-28T06:03:14.974Z,1014.02
2018-09-28T06:03:55.551Z,1014
2018-09-28T06:04:36.128Z,1014.03
2018-09-28T06:05:16.691Z,1014.01
2018-09-28T06:05:57.497Z,1014.05
2018-09-28T06:06:38.148Z,1014.06
2018-09-28T06:07:18.720Z,1014.05
2018-09-28T06:07:59.297Z,1014.08
2018-09-28T06:08:40.163Z,1014.1
2018-09-28T06:09:20.773Z,1014.13
2018-09-28T06:10:01.330Z,1014.17
2018-09-28T06:10:42.060Z,1014.16
2018-09-28T06:11:22.615Z,1014.2
2018-09-28T06:12:03.832Z,1014.21
2018-09-28T06:12:44.150Z,1014.19
2018-09-28T06:13:24.889Z,1014.2
2018-09-28T06:14:05.550Z,1014.23
2018-09-28T06:14:46.321Z,1014.23
2018-09-28T06:15:26.945Z,1014.27
2018-09-28T06:16:07.874Z,1014.26
2018-09-28T06:16:48.436Z,1014.27
2018-09-28T06:17:28.978Z,1014.28
2018-09-28T06:18:12.001Z,1014.26
2018-09-28T06:18:52.194Z,1014.25
2018-09-28T06:19:32.732Z,1014.24
2018-09-28T06:20:13.283Z,1014.32
2018-09-28T06:20:54.143Z,1014.29
2018-09-28T06:21:34.450Z,1014.27
2018-09-28T06:22:15.710Z,1014.37
2018-09-28T06:22:56.315Z,1014.36
2018-09-28T06:23:36.941Z,1014.33
2018-09-28T06:24:17.746Z,1014.36
2018-09-28T06:24:58.263Z,1014.39
2018-09-28T06:25:38.980Z,1014.42
2018-09-28T06:26:19.592Z,1014.42
2018-09-28T06:27:00.139Z,1014.43
2018-09-28T06:27:40.699Z,1014.43
2018-09-28T06:28:21.447Z,1014.48
2018-09-28T06:29:02.005Z,1014.44
2018-09-28T06:29:42.586Z,1014.47
2018-09-28T06:30:23.118Z,1014.5
2018-09-28T06:31:03.681Z,1014.52
2018-09-28T06:31:44.262Z,1014.52
2018-09-28T06:32:24.831Z,1014.52
2018-09-28T06:33:05.387Z,1014.55
2018-09-28T06:33:45.951Z,1014.56
2018-09-28T06:34:26.517Z,1014.56
2018-09-28T06:35:07.068Z,1014.6
2018-09-28T06:35:47.623Z,1014.59
2018-09-28T06:36:28.164Z,1014.61
2018-09-28T06:37:08.762Z,1014.61
2018-09-28T06:37:49.354Z,1014.59
2018-09-28T06:38:29.904Z,1014.6
2018-09-28T06:39:10.463Z,1014.62
2018-09-28T06:39:51.013Z,1014.63
2018-09-28T06:40:31.568Z,1014.67
2018-09-28T06:41:12.145Z,1014.68
2018-09-28T06:41:52.739Z,1014.7
2018-09-28T06:42:33.362Z,1014.68
2018-09-28T06:43:13.851Z,1014.73
2018-09-28T06:43:54.426Z,1014.68
2018-09-28T06:44:35.011Z,1014.74
2018-09-28T06:45:15.534Z,1014.77
2018-09-28T06:45:56.107Z,1014.74
2018-09-28T06:46:36.659Z,1014.75
2018-09-28T06:47:17.272Z,1014.76
2018-09-28T06:47:58.482Z,1014.77
2018-09-28T06:48:39.056Z,1014.76
2018-09-28T06:49:19.695Z,1014.77
2018-09-28T06:50:00.246Z,1014.84
2018-09-28T06:50:40.790Z,1014.79
2018-09-28T06:51:21.459Z,1014.78
2018-09-28T06:52:01.939Z,1014.75
2018-09-28T06:52:42.604Z,1014.79
2018-09-28T06:53:23.174Z,1014.78
2018-09-28T06:54:03.744Z,1014.8
2018-09-28T06:54:44.348Z,1014.78
2018-09-28T06:55:24.934Z,1014.77
2018-09-28T06:56:05.490Z,1014.82
2018-09-28T06:56:46.052Z,1014.84
2018-09-28T06:57:26.875Z,1014.82
2018-09-28T06:58:07.667Z,1014.85
2018-09-28T06:58:48.189Z,1014.88
2018-09-28T06:59:29.110Z,1014.87
2018-09-28T07:00:09.778Z,1014.9
2018-09-28T07:00:50.288Z,1014.9
2018-09-28T07:01:30.871Z,1014.91
2018-09-28T07:02:11.427Z,1014.94
2018-09-28T07:02:51.985Z,1014.95
2018-09-28T07:03:32.538Z,1014.99
2018-09-28T07:04:13.120Z,1014.97
2018-09-28T07:04:53.678Z,1015.01
2018-09-28T07:05:34.236Z,1014.99
2018-09-28T07:06:14.893Z,1015.04
2018-09-28T07:06:55.413Z,1015.02
2018-09-28T07:07:35.992Z,1015.07
2018-09-28T07:08:16.563Z,1015.06
2018-09-28T07:08:57.119Z,1015.08
2018-09-28T07:09:37.677Z,1015.08
2018-09-28T07:10:18.239Z,1015.06
2018-09-28T07:10:58.841Z,1015.09
2018-09-28T07:11:39.470Z,1015.11
2018-09-28T07:12:20.096Z,1015.12
2018-09-28T07:13:00.584Z,1015.13
2018-09-28T07:13:41.217Z,1015.14
2018-09-28T07:14:21.778Z,1015.15
2018-09-28T07:15:02.362Z,1015.13
2018-09-28T07:15:42.913Z,1015.09
2018-09-28T07:16:23.592Z,1015.22
2018-09-28T07:17:04.061Z,1015.23
2018-09-28T07:17:44.663Z,1015.26
2018-09-28T07:18:25.393Z,1015.26
2018-09-28T07:19:05.889Z,1015.3
2018-09-28T07:19:46.431Z,1015.26
2018-09-28T07:20:27.012Z,1015.22
2018-09-28T07:21:07.557Z,1015.28
2018-09-28T07:21:48.183Z,1015.43
2018-09-28T07:22:28.790Z,1015.39
2018-09-28T07:23:09.327Z,1015.45
2018-09-28T07:23:50.158Z,1015.51
2018-09-28T07:24:30.745Z,1015.75
2018-09-28T07:25:11.349Z,1015.6
2018-09-28T07:25:51.864Z,1015.68
2018-09-28T07:26:32.424Z,1015.6
2018-09-28T07:27:13.019Z,1015.87
2018-09-28T07:27:53.593Z,1015.55
2018-09-28T07:28:34.199Z,1015.57
2018-09-28T07:29:14.823Z,1015.55
2018-09-28T07:29:55.785Z,1015.65
2018-09-28T07:30:36.241Z,1015.6
2018-09-28T07:31:16.803Z,1015.73
2018-09-28T07:31:57.433Z,1015.72
2018-09-28T07:32:38.017Z,1015.75
2018-09-28T07:33:18.572Z,1015.78
2018-09-28T07:33:59.141Z,1015.74
2018-09-28T07:34:39.710Z,1015.85
2018-09-28T07:35:20.281Z,1015.8
2018-09-28T07:36:00.968Z,1015.85
2018-09-28T07:36:41.652Z,1015.86
2018-09-28T07:37:22.029Z,1015.83
2018-09-28T07:38:02.596Z,1015.85
2018-09-28T07:38:43.223Z,1015.72
2018-09-28T07:39:23.774Z,1015.68
2018-09-28T07:40:04.363Z,1015.64
2018-09-28T07:40:45.011Z,1015.8
2018-09-28T07:41:25.486Z,1015.95
2018-09-28T07:42:06.151Z,1016.01
2018-09-28T07:42:46.707Z,1015.89
2018-09-28T07:43:27.297Z,1015.87
2018-09-28T07:44:07.884Z,1015.75
2018-09-28T07:44:48.480Z,1015.91
2018-09-28T07:45:29.041Z,1015.91
2018-09-28T07:46:09.602Z,1015.96
2018-09-28T07:46:50.287Z,1015.96
2018-09-28T07:47:30.860Z,1015.98
2018-09-28T07:48:11.444Z,1015.91
2018-09-28T07:48:51.997Z,1015.9
2018-09-28T07:49:32.555Z,1015.98
2018-09-28T07:50:13.149Z,1015.92
2018-09-28T07:50:53.726Z,1016.09
2018-09-28T07:51:34.280Z,1016.06
2018-09-28T07:52:14.861Z,1016.14
2018-09-28T07:52:55.445Z,1016.1
2018-09-28T07:53:36.009Z,1016.11
2018-09-28T07:54:16.596Z,1016.13
2018-09-28T07:54:57.144Z,1016.11
2018-09-28T07:55:37.750Z,1016.15
2018-09-28T07:56:18.296Z,1016.17
2018-09-28T07:56:58.881Z,1016.19
2018-09-28T07:57:39.439Z,1016.2
2018-09-28T07:58:20.004Z,1016.19
2018-09-28T07:59:00.581Z,1016.2
2018-09-28T07:59:41.186Z,1016.31
2018-09-28T08:00:21.725Z,1016.26
2018-09-28T08:01:02.292Z,1016.22
2018-09-28T08:01:42.885Z,1016.24
2018-09-28T08:02:23.547Z,1016.27
2018-09-28T08:03:04.122Z,1016.27
2018-09-28T08:03:44.698Z,1016.3
2018-09-28T08:04:25.243Z,1016.29
2018-09-28T08:05:05.808Z,1016.26
2018-09-28T08:05:46.406Z,1016.35
2018-09-28T08:06:26.973Z,1016.33
2018-09-28T08:07:07.560Z,1016.32
2018-09-28T08:07:48.134Z,1016.4
2018-09-28T08:08:28.708Z,1016.42
2018-09-28T08:09:09.278Z,1016.41
2018-09-28T08:09:49.846Z,1016.46
2018-09-28T08:10:30.460Z,1016.44
2018-09-28T08:11:11.019Z,1016.53
2018-09-28T08:11:51.655Z,1016.58
2018-09-28T08:12:32.260Z,1016.55
2018-09-28T08:13:12.824Z,1016.58
2018-09-28T08:13:53.421Z,1016.59
2018-09-28T08:14:33.992Z,1016.64
2018-09-28T08:15:14.568Z,1016.59
2018-09-28T08:15:55.128Z,1016.58
2018-09-28T08:16:35.695Z,1016.57
2018-09-28T08:17:16.306Z,1016.63